createdAt,value
2022-12-24T00:03:25.258Z,10.26
2022-12-24T00:08:27.200Z,10.26
2022-12-24T00:13:28.958Z,10.26
2022-12-24T00:18:31.157Z,10.27
2022-12-24T00:23:33.134Z,10.27
2022-12-24T00:28:35.146Z,10.26
2022-12-24T00:33:36.950Z,10.29
2022-12-24T00:38:39.357Z,10.29
2022-12-24T00:43:41.186Z,10.28
2022-12-24T00:48:43.067Z,10.29
2022-12-24T00:53:44.901Z,10.26
2022-12-24T00:58:46.760Z,10.21
2022-12-24T01:03:49.362Z,10.15
2022-12-24T01:08:51.539Z,10.13
2022-12-24T01:13:53.423Z,10.15
2022-12-24T01:18:55.392Z,10.18
2022-12-24T01:23:57.280Z,10.20
2022-12-24T01:28:59.671Z,10.21
2022-12-24T01:34:01.530Z,10.22
2022-12-24T01:39:04.331Z,10.22
2022-12-24T01:44:21.499Z,10.25
2022-12-24T01:49:23.580Z,10.26
2022-12-24T01:54:35.595Z,10.31
2022-12-24T01:59:39.224Z,10.32
2022-12-24T02:04:46.781Z,10.30
2022-12-24T02:09:53.356Z,10.23
2022-12-24T02:14:55.516Z,10.17
2022-12-24T02:20:12.587Z,10.15
2022-12-24T02:25:17.344Z,10.14
2022-12-24T02:30:34.816Z,10.16
2022-12-24T02:35:51.438Z,10.18
2022-12-24T02:41:27.215Z,10.20
2022-12-24T02:46:32.335Z,10.20
2022-12-24T02:51:34.248Z,10.20
2022-12-24T02:57:19.081Z,10.19
2022-12-24T03:02:46.080Z,10.16
2022-12-24T03:08:06.471Z,10.14
2022-12-24T03:13:16.021Z,10.12
2022-12-24T03:18:21.165Z,10.11
2022-12-24T03:23:23.008Z,10.10
2022-12-24T03:28:27.799Z,10.10
2022-12-24T03:33:29.864Z,10.09
2022-12-24T03:38:31.928Z,10.08
2022-12-24T03:43:33.958Z,10.07
2022-12-24T03:48:36.661Z,10.06
2022-12-24T03:53:38.486Z,10.05
2022-12-24T03:58:40.389Z,10.03
2022-12-24T04:03:42.791Z,10.06
2022-12-24T04:08:45.016Z,10.07
2022-12-24T04:13:47.042Z,10.10
2022-12-24T04:18:50.034Z,10.13
2022-12-24T04:23:51.832Z,10.14
2022-12-24T04:28:53.796Z,10.16
2022-12-24T04:33:55.549Z,10.18
2022-12-24T04:38:57.391Z,10.20
2022-12-24T04:43:59.596Z,10.21
2022-12-24T04:49:02.331Z,10.22
2022-12-24T04:54:04.327Z,10.22
2022-12-24T04:59:06.207Z,10.17
2022-12-24T05:04:09.238Z,10.12
2022-12-24T05:09:11.085Z,10.10
2022-12-24T05:14:12.996Z,10.06
2022-12-24T05:19:14.836Z,10.05
2022-12-24T05:24:35.028Z,10.04
2022-12-24T05:29:36.936Z,10.03
2022-12-24T05:34:39.016Z,10.01
2022-12-24T05:39:40.849Z,9.97
2022-12-24T05:44:42.870Z,9.92
2022-12-24T05:49:45.247Z,9.89
2022-12-24T05:54:47.061Z,9.86
2022-12-24T05:59:49.399Z,9.85
2022-12-24T06:04:51.297Z,9.82
2022-12-24T06:09:55.846Z,9.79
2022-12-24T06:14:57.676Z,9.73
2022-12-24T06:19:59.533Z,9.70
2022-12-24T06:25:01.423Z,9.66
2022-12-24T06:30:03.963Z,9.62
2022-12-24T06:35:06.119Z,9.60
2022-12-24T06:40:08.617Z,9.58
2022-12-24T06:45:10.958Z,9.57
2022-12-24T06:50:13.449Z,9.59
2022-12-24T06:55:15.548Z,9.61
2022-12-24T07:00:17.845Z,9.65
2022-12-24T07:05:19.671Z,9.69
2022-12-24T07:10:22.075Z,9.70
2022-12-24T07:15:25.405Z,9.72
2022-12-24T07:20:27.270Z,9.72
2022-12-24T07:25:29.119Z,9.71
2022-12-24T07:30:31.189Z,9.69
2022-12-24T07:35:33.075Z,9.69
2022-12-24T07:40:35.427Z,9.67
2022-12-24T07:45:37.427Z,9.66
2022-12-24T07:50:39.235Z,9.67
2022-12-24T07:55:41.327Z,9.68
2022-12-24T08:00:43.308Z,9.69
2022-12-24T08:05:45.998Z,9.70
2022-12-24T08:10:47.803Z,9.72
2022-12-24T08:15:49.766Z,9.73
2022-12-24T08:20:51.891Z,9.73
2022-12-24T08:25:54.165Z,9.76
2022-12-24T08:30:55.977Z,9.76
2022-12-24T08:35:58.427Z,9.79
2022-12-24T08:41:09.571Z,9.81
2022-12-24T08:46:11.544Z,9.84
2022-12-24T08:51:13.532Z,9.87
2022-12-24T08:56:15.402Z,9.88
2022-12-24T09:01:19.997Z,9.91
2022-12-24T09:06:22.024Z,9.95
2022-12-24T09:11:24.440Z,10.02
2022-12-24T09:16:30.338Z,10.15
2022-12-24T09:21:32.254Z,10.37
2022-12-24T09:26:39.014Z,10.66
2022-12-24T09:31:41.079Z,10.89
2022-12-24T09:36:42.975Z,11.05
2022-12-24T09:42:03.472Z,10.91
2022-12-24T09:47:19.827Z,10.83
2022-12-24T09:52:35.855Z,10.77
2022-12-24T09:57:41.913Z,10.73
2022-12-24T10:02:43.802Z,10.68
2022-12-24T10:08:14.252Z,10.64
2022-12-24T10:13:49.016Z,10.58
2022-12-24T10:19:02.628Z,10.60
2022-12-24T10:24:26.302Z,10.68
2022-12-24T10:29:32.457Z,10.66
2022-12-24T10:34:41.899Z,10.55
2022-12-24T10:39:46.484Z,10.48
2022-12-24T10:44:54.927Z,10.44
2022-12-24T10:50:28.272Z,10.46
2022-12-24T10:55:30.156Z,10.48
2022-12-24T11:00:36.238Z,10.51
2022-12-24T11:05:39.460Z,10.55
2022-12-24T11:10:45.528Z,10.55
2022-12-24T11:15:47.507Z,10.53
2022-12-24T11:20:52.429Z,10.50
2022-12-24T11:25:57.202Z,10.46
2022-12-24T11:31:04.624Z,10.43
2022-12-24T11:36:12.359Z,10.35
2022-12-24T11:41:14.292Z,10.29
2022-12-24T11:46:40.777Z,10.25
2022-12-24T11:52:21.482Z,10.26
2022-12-24T11:57:31.982Z,10.29
2022-12-24T12:02:38.589Z,10.33
2022-12-24T12:07:42.509Z,10.34
2022-12-24T12:12:59.683Z,10.37
2022-12-24T12:18:24.031Z,10.40
2022-12-24T12:23:33.484Z,10.46
2022-12-24T12:29:04.148Z,10.52
2022-12-24T12:34:23.867Z,10.56
2022-12-24T12:39:25.729Z,10.55
2022-12-24T12:44:45.529Z,10.55
2022-12-24T12:50:10.076Z,10.51
2022-12-24T12:55:35.837Z,10.52
2022-12-24T13:00:45.320Z,10.55
2022-12-24T13:06:02.339Z,10.60
2022-12-24T13:11:54.045Z,10.66
2022-12-24T13:17:18.402Z,10.68
2022-12-24T13:22:22.095Z,10.67
2022-12-24T13:27:27.793Z,10.64
2022-12-24T13:32:49.956Z,10.60
2022-12-24T13:37:52.097Z,10.57
2022-12-24T13:43:01.199Z,10.57
2022-12-24T13:48:19.036Z,10.60
2022-12-24T13:53:35.281Z,10.66
2022-12-24T13:58:41.484Z,10.67
2022-12-24T14:03:53.549Z,10.62
2022-12-24T14:08:58.297Z,10.56
2022-12-24T14:14:05.951Z,10.49
2022-12-24T14:19:22.261Z,10.46
2022-12-24T14:24:28.068Z,10.40
2022-12-24T14:29:36.085Z,10.36
2022-12-24T14:34:37.918Z,10.30
2022-12-24T14:39:44.554Z,10.25
2022-12-24T14:45:02.577Z,10.21
2022-12-24T14:50:31.584Z,10.16
2022-12-24T14:55:41.287Z,10.11
2022-12-24T15:00:43.619Z,10.09
2022-12-24T15:05:45.976Z,10.07
2022-12-24T15:10:52.665Z,10.05
2022-12-24T15:15:56.297Z,10.01
2022-12-24T15:21:04.514Z,9.98
2022-12-24T15:26:19.604Z,9.98
2022-12-24T15:31:24.838Z,9.99
2022-12-24T15:36:33.287Z,10.00
2022-12-24T15:42:01.939Z,10.00
2022-12-24T15:47:05.282Z,10.02
2022-12-24T15:52:11.125Z,9.97
2022-12-24T15:57:29.805Z,9.94
2022-12-24T16:02:45.504Z,9.90
2022-12-24T16:08:24.361Z,9.93
2022-12-24T16:13:31.122Z,9.90
2022-12-24T16:18:40.255Z,9.89
2022-12-24T16:23:48.200Z,9.87
2022-12-24T16:28:50.933Z,9.88
2022-12-24T16:33:54.763Z,9.82
2022-12-24T16:39:17.041Z,9.78
2022-12-24T16:44:19.059Z,9.72
2022-12-24T16:49:23.127Z,9.69
2022-12-24T16:54:25.012Z,9.68
2022-12-24T16:59:26.832Z,9.66
2022-12-24T17:04:31.359Z,9.63
2022-12-24T17:09:36.067Z,9.57
2022-12-24T17:14:42.455Z,9.48
2022-12-24T17:19:44.411Z,9.33
2022-12-24T17:24:46.986Z,9.23
2022-12-24T17:29:48.925Z,9.19
2022-12-24T17:34:50.818Z,9.13
2022-12-24T17:39:52.750Z,9.09
2022-12-24T17:44:54.577Z,9.04
2022-12-24T17:49:56.305Z,9.01
2022-12-24T17:54:58.278Z,8.96
2022-12-24T18:00:00.854Z,8.89
2022-12-24T18:05:04.519Z,8.81
2022-12-24T18:10:07.103Z,8.72
2022-12-24T18:15:09.422Z,8.63
2022-12-24T18:20:11.705Z,8.56
2022-12-24T18:25:13.711Z,8.54
2022-12-24T18:30:15.706Z,8.56
2022-12-24T18:35:17.722Z,8.57
2022-12-24T18:40:20.648Z,8.56
2022-12-24T18:45:22.502Z,8.54
2022-12-24T18:50:24.349Z,8.52
2022-12-24T18:55:26.216Z,8.52
2022-12-24T19:00:28.137Z,8.52
2022-12-24T19:05:31.001Z,8.52
2022-12-24T19:10:32.788Z,8.52
2022-12-24T19:15:36.114Z,8.51
2022-12-24T19:20:39.816Z,8.48
2022-12-24T19:25:41.677Z,8.49
2022-12-24T19:30:43.494Z,8.47
2022-12-24T19:35:45.371Z,8.47
2022-12-24T19:40:47.205Z,8.44
2022-12-24T19:45:49.074Z,8.42
2022-12-24T19:50:51.093Z,8.40
2022-12-24T19:55:52.833Z,8.40
2022-12-24T20:00:55.579Z,8.39
2022-12-24T20:05:57.354Z,8.39
2022-12-24T20:10:59.157Z,8.38
2022-12-24T20:16:13.330Z,8.38
2022-12-24T20:21:15.112Z,8.37
2022-12-24T20:26:19.760Z,8.36
2022-12-24T20:31:28.135Z,8.35
2022-12-24T20:36:31.757Z,8.34
2022-12-24T20:41:34.127Z,8.30
2022-12-24T20:46:36.033Z,8.26
2022-12-24T20:51:37.968Z,8.24
2022-12-24T20:56:40.668Z,8.22
2022-12-24T21:01:42.600Z,8.19
2022-12-24T21:06:44.720Z,8.13
2022-12-24T21:11:52.371Z,8.08
2022-12-24T21:16:57.241Z,8.03
2022-12-24T21:21:59.164Z,7.98
2022-12-24T21:27:01.732Z,7.93
2022-12-24T21:32:03.541Z,7.91
2022-12-24T21:37:05.376Z,7.86
2022-12-24T21:42:07.266Z,7.78
2022-12-24T21:47:10.044Z,7.71
2022-12-24T21:52:11.856Z,7.65
2022-12-24T21:57:32.151Z,7.63
2022-12-24T22:02:34.208Z,7.62
2022-12-24T22:07:55.031Z,7.61
2022-12-24T22:13:06.292Z,7.60
2022-12-24T22:18:08.295Z,7.60
2022-12-24T22:23:11.555Z,7.59
2022-12-24T22:28:13.609Z,7.56
2022-12-24T22:33:15.520Z,7.55
2022-12-24T22:38:17.638Z,7.50
2022-12-24T22:43:19.480Z,7.47
2022-12-24T22:48:21.227Z,7.47
2022-12-24T22:53:23.146Z,7.45
2022-12-24T22:58:28.329Z,7.42
2022-12-24T23:03:30.668Z,7.40
2022-12-24T23:08:35.755Z,7.39
2022-12-24T23:13:58.372Z,7.36
2022-12-24T23:19:02.785Z,7.38
2022-12-24T23:24:05.028Z,7.46
2022-12-24T23:29:06.881Z,7.53
2022-12-24T23:34:08.769Z,7.61
2022-12-24T23:39:13.758Z,7.68
2022-12-24T23:44:15.711Z,7.73
2022-12-24T23:49:17.451Z,7.77
2022-12-24T23:54:19.446Z,7.82
2022-12-24T23:59:21.299Z,7.86
